Time;durP1;ratioP1;P1;durP2;ratioP2;P2;SDS_P1;SDS_P2;PMS_P1;PMS_P2;Temp;Humidity;BMP_temperature;BMP_pressure;BME280_temperature;BME280_humidity;BME280_pressure;Samples;Min_cycle;Max_cycle;Signal;HPM_P1;HPM_P2
2020/12/10 00:01:15;;;;;;;21.40;13.23;;;;;;;2.10;76.18;98203.84;6037434;23;20197;-87
2020/12/10 00:03:41;;;;;;;20.17;12.98;;;;;;;2.40;75.49;98197.97;6007171;23;20272;-88
2020/12/10 00:06:08;;;;;;;19.15;12.40;;;;;;;2.48;74.92;98198.47;6006638;23;20234;-85
2020/12/10 00:08:34;;;;;;;18.27;12.65;;;;;;;2.65;74.39;98200.28;6032875;23;20256;-88
2020/12/10 00:11:00;;;;;;;20.90;12.40;;;;;;;2.81;73.61;98195.94;6048708;23;20227;-87
2020/12/10 00:13:31;;;;;;;17.73;11.02;;;;;;;2.74;73.45;98195.38;6019150;23;20686;-88
2020/12/10 00:15:58;;;;;;;18.15;10.15;;;;;;;2.54;74.17;98192.84;5993809;23;20746;-88
2020/12/10 00:18:24;;;;;;;19.80;13.05;;;;;;;2.73;73.91;98187.50;6043813;23;20204;-87
2020/12/10 00:20:50;;;;;;;20.30;13.27;;;;;;;2.76;73.40;98188.19;5997253;23;20232;-87
2020/12/10 00:23:16;;;;;;;19.85;11.88;;;;;;;2.72;73.51;98176.03;6021005;23;20161;-88
2020/12/10 00:25:42;;;;;;;17.60;11.82;;;;;;;2.47;74.52;98174.66;6051212;23;20169;-88
2020/12/10 00:28:09;;;;;;;20.25;11.75;;;;;;;2.72;73.86;98162.78;6036143;23;20204;-86
2020/12/10 00:30:35;;;;;;;19.63;11.98;;;;;;;2.70;74.06;98166.44;6048412;23;20208;-87
2020/12/10 00:33:01;;;;;;;20.70;11.65;;;;;;;2.75;73.46;98154.63;6027203;23;20228;-89
2020/12/10 00:35:28;;;;;;;15.98;10.75;;;;;;;2.77;73.74;98157.22;6034466;23;20276;-89
2020/12/10 00:37:54;;;;;;;17.23;11.55;;;;;;;2.80;73.74;98152.63;6063100;23;20172;-88
2020/12/10 00:40:21;;;;;;;18.85;11.27;;;;;;;2.83;73.79;98155.09;6013150;23;20281;-89
2020/12/10 00:42:47;;;;;;;19.20;11.65;;;;;;;2.81;73.74;98151.69;6060003;23;20236;-88
2020/12/10 00:45:13;;;;;;;20.55;11.65;;;;;;;2.65;73.90;98145.41;6001967;23;20249;-89
2020/12/10 00:47:45;;;;;;;19.42;12.77;;;;;;;2.74;73.79;98144.97;6013549;23;20677;-88
2020/12/10 00:50:11;;;;;;;18.27;11.90;;;;;;;2.68;74.08;98147.03;6042833;23;20169;-88
2020/12/10 00:52:39;;;;;;;22.05;13.15;;;;;;;2.48;74.72;98140.09;6051884;23;20192;-87
2020/12/10 00:55:11;;;;;;;17.63;12.45;;;;;;;2.42;75.14;98132.44;6035764;23;20269;-88
2020/12/10 00:57:39;;;;;;;18.42;13.23;;;;;;;2.41;75.32;98128.06;6056147;23;20295;-87
2020/12/10 01:00:10;;;;;;;18.70;13.00;;;;;;;2.26;75.73;98128.78;6019036;23;20287;-88
2020/12/10 01:02:36;;;;;;;21.02;11.25;;;;;;;2.35;75.62;98138.09;6041957;23;20236;-88
2020/12/10 01:05:04;;;;;;;18.63;12.35;;;;;;;2.39;75.76;98137.88;6043689;23;20165;-87
2020/12/10 01:07:30;;;;;;;21.38;13.40;;;;;;;2.30;75.50;98135.69;6042415;23;20619;-87
2020/12/10 01:09:57;;;;;;;19.15;12.68;;;;;;;2.24;75.82;98122.72;6017152;23;20208;-88
2020/12/10 01:12:23;;;;;;;20.13;11.45;;;;;;;2.14;76.36;98124.09;6041475;23;20714;-88
2020/12/10 01:14:49;;;;;;;18.15;12.80;;;;;;;2.14;76.37;98118.81;6023102;23;20208;-88
2020/12/10 01:17:15;;;;;;;18.05;11.15;;;;;;;2.35;75.90;98117.75;6041141;23;20172;-88
2020/12/10 01:19:42;;;;;;;18.40;12.20;;;;;;;2.28;76.14;98121.66;6043850;23;20173;-88
2020/12/10 01:22:13;;;;;;;18.52;11.60;;;;;;;2.20;76.26;98120.28;6041207;23;20208;-87
2020/12/10 01:24:40;;;;;;;16.90;11.20;;;;;;;2.27;76.13;98129.66;5994696;23;20830;-88
2020/12/10 01:27:06;;;;;;;15.15;11.30;;;;;;;2.28;76.21;98119.00;6042416;23;20263;-88
2020/12/10 01:29:34;;;;;;;19.73;12.68;;;;;;;2.29;76.32;98120.69;6018925;23;20318;-90
2020/12/10 01:32:01;;;;;;;16.95;11.70;;;;;;;2.43;76.16;98118.22;6020810;23;20209;-89
2020/12/10 01:34:27;;;;;;;17.88;11.88;;;;;;;2.62;74.95;98113.72;6018118;23;20315;-89
2020/12/10 01:36:53;;;;;;;17.17;11.52;;;;;;;2.60;74.90;98112.97;6041223;23;20232;-89
2020/12/10 01:39:20;;;;;;;16.48;10.93;;;;;;;2.58;75.08;98116.63;6042906;22;20207;-89
2020/12/10 01:41:46;;;;;;;16.90;10.90;;;;;;;2.63;75.01;98123.41;6063889;23;20196;-88
2020/12/10 01:44:13;;;;;;;14.95;10.00;;;;;;;2.58;75.19;98113.97;6036188;23;20157;-88
2020/12/10 01:46:41;;;;;;;14.50;9.93;;;;;;;2.64;74.48;98111.84;6034599;23;20193;-88
2020/12/10 01:49:09;;;;;;;19.13;12.35;;;;;;;2.71;74.49;98105.28;6005892;23;20264;-85
2020/12/10 01:51:36;;;;;;;17.38;11.32;;;;;;;2.67;74.88;98103.75;6005775;23;20402;-83
2020/12/10 01:54:04;;;;;;;20.48;12.70;;;;;;;2.71;74.60;98099.97;6029372;23;20258;-86
2020/12/10 01:56:30;;;;;;;20.27;12.65;;;;;;;2.65;75.11;98094.97;6018602;23;20208;-87
2020/12/10 01:58:59;;;;;;;19.10;12.35;;;;;;;2.63;74.91;98096.03;6044485;23;20161;-87
2020/12/10 02:01:27;;;;;;;19.92;12.32;;;;;;;2.62;75.28;98092.50;6017737;23;20212;-87
2020/12/10 02:03:55;;;;;;;19.27;11.98;;;;;;;2.63;74.74;98096.88;6014777;23;20308;-87
2020/12/10 02:06:25;;;;;;;19.42;12.82;;;;;;;2.56;75.06;98089.31;6039509;23;20547;-87
2020/12/10 02:08:51;;;;;;;16.80;10.82;;;;;;;2.55;75.28;98083.13;6039415;23;20204;-87
2020/12/10 02:11:17;;;;;;;17.85;11.80;;;;;;;2.40;75.22;98081.25;6014609;23;20217;-86
2020/12/10 02:13:43;;;;;;;17.42;11.00;;;;;;;2.47;75.61;98089.75;6041164;23;20180;-87
2020/12/10 02:16:09;;;;;;;18.73;12.07;;;;;;;2.37;75.70;98084.03;6021339;23;20263;-82
2020/12/10 02:18:37;;;;;;;18.35;11.60;;;;;;;2.36;75.67;98082.34;6062126;23;20193;-83
2020/12/10 02:21:04;;;;;;;20.17;12.55;;;;;;;2.45;75.89;98084.50;6014991;23;20252;-82
2020/12/10 02:23:30;;;;;;;18.80;12.38;;;;;;;2.38;75.94;98075.16;6062433;23;20221;-83
2020/12/10 02:25:57;;;;;;;19.75;12.55;;;;;;;2.39;75.69;98071.56;6043392;23;20228;-87
2020/12/10 02:28:23;;;;;;;20.83;12.50;;;;;;;2.31;75.96;98067.59;6039151;23;20228;-85
2020/12/10 02:30:49;;;;;;;19.88;12.05;;;;;;;2.27;75.74;98071.31;6015211;23;20216;-87
2020/12/10 02:33:17;;;;;;;20.40;12.88;;;;;;;2.24;76.32;98074.13;6016400;23;20208;-86
2020/12/10 02:35:45;;;;;;;20.40;12.90;;;;;;;2.24;76.78;98076.78;5992200;23;20247;-86
2020/12/10 02:38:12;;;;;;;19.90;12.93;;;;;;;2.27;76.80;98071.31;6016472;23;20184;-86
2020/12/10 02:40:44;;;;;;;20.52;11.85;;;;;;;2.27;76.95;98069.53;6044807;23;20311;-87
2020/12/10 02:43:12;;;;;;;21.17;12.80;;;;;;;2.30;76.65;98066.72;6044273;23;20208;-87
2020/12/10 02:45:39;;;;;;;17.25;11.00;;;;;;;2.30;76.52;98064.06;6034391;23;20192;-83
2020/12/10 02:48:06;;;;;;;18.85;11.85;;;;;;;2.34;76.60;98056.81;6062296;23;20188;-83
2020/12/10 02:50:32;;;;;;;20.08;11.65;;;;;;;2.32;76.92;98059.53;6035375;23;20196;-86
2020/12/10 02:52:58;;;;;;;15.02;10.32;;;;;;;2.38;76.81;98053.94;6049004;23;20181;-86
2020/12/10 02:55:24;;;;;;;16.50;10.65;;;;;;;2.39;76.56;98039.72;6016707;23;20208;-86
2020/12/10 02:57:50;;;;;;;13.38;9.27;;;;;;;2.42;76.59;98042.25;6038879;23;20205;-87
2020/12/10 03:00:17;;;;;;;16.90;11.40;;;;;;;2.42;76.58;98038.72;5991096;23;20535;-87
2020/12/10 03:02:43;;;;;;;16.48;10.98;;;;;;;2.35;76.78;98042.63;6015520;23;20239;-87
2020/12/10 03:05:09;;;;;;;14.00;9.48;;;;;;;2.38;76.86;98037.19;6014847;23;20173;-87
2020/12/10 03:07:35;;;;;;;14.00;9.27;;;;;;;2.40;76.90;98046.78;6016532;23;20202;-86
2020/12/10 03:10:03;;;;;;;16.40;10.77;;;;;;;2.36;76.98;98033.72;6014664;23;20592;-87
2020/12/10 03:12:30;;;;;;;17.52;10.05;;;;;;;2.41;76.67;98021.09;6042882;23;20211;-86
2020/12/10 03:14:56;;;;;;;14.38;9.93;;;;;;;2.36;76.88;98029.28;6015423;23;20200;-86
2020/12/10 03:17:25;;;;;;;17.98;10.07;;;;;;;2.44;76.94;98026.25;5992865;23;20599;-87
2020/12/10 03:19:52;;;;;;;16.05;10.68;;;;;;;2.37;76.67;98023.03;6041147;23;20200;-86
2020/12/10 03:22:18;;;;;;;16.33;11.35;;;;;;;2.30;77.00;98021.63;6015387;23;20239;-86
2020/12/10 03:24:44;;;;;;;18.00;11.90;;;;;;;2.30;77.08;98023.41;6015368;23;20209;-87
2020/12/10 03:27:10;;;;;;;18.33;11.77;;;;;;;2.34;77.29;98023.22;6039771;23;20228;-86
2020/12/10 03:29:36;;;;;;;18.88;12.02;;;;;;;2.28;77.00;98004.94;6039773;23;20204;-86
2020/12/10 03:32:03;;;;;;;19.38;12.23;;;;;;;2.20;77.42;98001.81;6023520;23;20177;-84
2020/12/10 03:34:30;;;;;;;19.98;12.02;;;;;;;2.15;77.33;97995.91;6039926;23;20208;-85
2020/12/10 03:36:58;;;;;;;19.55;11.65;;;;;;;2.24;77.10;97992.78;6039313;23;20261;-83
2020/12/10 03:39:27;;;;;;;19.25;11.82;;;;;;;2.21;77.41;97997.38;6038941;23;20193;-85
2020/12/10 03:41:55;;;;;;;19.70;11.70;;;;;;;2.26;77.52;97998.00;6039229;23;20193;-84
2020/12/10 03:44:22;;;;;;;16.00;11.60;;;;;;;2.24;77.34;97991.94;6038551;23;20157;-83
2020/12/10 03:46:48;;;;;;;21.52;10.82;;;;;;;2.22;77.48;97993.78;6009176;23;20169;-86
2020/12/10 03:49:14;;;;;;;18.95;11.65;;;;;;;2.19;77.43;97989.50;6037313;23;20211;-87
2020/12/10 03:51:40;;;;;;;17.92;12.05;;;;;;;2.17;77.77;97988.72;6015332;23;20527;-87
2020/12/10 03:54:07;;;;;;;19.40;11.43;;;;;;;2.18;77.82;97993.09;6038643;23;20267;-86
2020/12/10 03:56:33;;;;;;;19.75;11.95;;;;;;;2.18;77.57;97990.44;6037967;23;20212;-87
2020/12/10 03:59:01;;;;;;;19.48;12.63;;;;;;;2.26;77.66;97984.75;6017003;23;20183;-86
2020/12/10 04:01:27;;;;;;;17.75;10.77;;;;;;;2.09;77.98;97977.66;6038739;23;20217;-87
2020/12/10 04:03:54;;;;;;;18.30;12.38;;;;;;;2.11;77.94;97972.25;6038893;23;20291;-87
2020/12/10 04:06:21;;;;;;;20.92;12.15;;;;;;;2.16;78.07;97973.75;6038944;23;20192;-87
2020/12/10 04:08:47;;;;;;;20.02;11.98;;;;;;;2.14;78.15;97967.69;6038177;23;20215;-87
2020/12/10 04:11:13;;;;;;;18.42;10.82;;;;;;;2.22;78.15;97967.28;6016170;23;20682;-84
2020/12/10 04:13:39;;;;;;;16.13;10.50;;;;;;;2.22;77.99;97960.19;6052204;23;20204;-87
2020/12/10 04:16:06;;;;;;;15.07;9.77;;;;;;;2.27;77.67;97966.13;6019861;23;20220;-85
2020/12/10 04:18:37;;;;;;;17.92;11.00;;;;;;;2.30;77.56;97965.94;6019108;23;20237;-86
2020/12/10 04:21:04;;;;;;;20.35;12.20;;;;;;;2.29;77.62;97956.28;6056372;23;20284;-86
2020/12/10 04:23:30;;;;;;;17.60;10.52;;;;;;;2.34;77.33;97956.91;6031787;23;20212;-87
2020/12/10 04:25:56;;;;;;;22.75;12.18;;;;;;;2.26;77.75;97953.75;6017612;23;20173;-87
2020/12/10 04:28:23;;;;;;;16.13;10.45;;;;;;;2.34;77.51;97951.59;6014748;23;20220;-86
2020/12/10 04:30:49;;;;;;;16.05;11.23;;;;;;;2.41;77.15;97952.13;6039289;23;20553;-87
2020/12/10 04:33:15;;;;;;;16.88;11.57;;;;;;;2.45;77.42;97951.88;6040331;23;20196;-86
2020/12/10 04:35:42;;;;;;;16.30;11.82;;;;;;;2.46;76.89;97942.16;5993404;23;20213;-87
2020/12/10 04:38:09;;;;;;;18.58;11.63;;;;;;;2.41;77.16;97942.38;6042802;23;20164;-86
2020/12/10 04:40:36;;;;;;;18.00;11.55;;;;;;;2.43;76.74;97943.16;6026506;23;20640;-86
2020/12/10 04:43:08;;;;;;;16.45;11.00;;;;;;;2.42;76.78;97949.41;6021967;23;20204;-86
2020/12/10 04:45:34;;;;;;;17.15;11.55;;;;;;;2.41;77.27;97958.31;6060863;23;20215;-82
2020/12/10 04:48:01;;;;;;;16.25;11.70;;;;;;;2.40;77.25;97958.38;6037088;23;20197;-87
2020/12/10 04:50:29;;;;;;;16.13;11.02;;;;;;;2.47;77.13;97946.50;6002026;23;20820;-86
2020/12/10 04:52:57;;;;;;;16.95;11.60;;;;;;;2.37;77.33;97946.13;6048842;23;20165;-86
2020/12/10 04:55:23;;;;;;;18.42;10.75;;;;;;;2.39;77.36;97946.06;6002872;23;20189;-85
2020/12/10 04:57:52;;;;;;;16.55;10.60;;;;;;;2.40;77.60;97939.81;6031669;23;20233;-85
2020/12/10 05:00:20;;;;;;;18.20;11.07;;;;;;;2.26;77.93;97937.84;6059539;23;20219;-85
2020/12/10 05:02:47;;;;;;;18.45;10.50;;;;;;;2.25;77.86;97933.50;6053359;23;20209;-86
2020/12/10 05:05:31;;;;;;;15.93;9.63;;;;;;;2.22;78.15;97931.00;6019942;23;20179;-86
2020/12/10 05:07:59;;;;;;;19.52;11.13;;;;;;;2.20;77.86;97927.56;5997373;23;20169;-86
2020/12/10 05:10:26;;;;;;;18.83;12.10;;;;;;;2.17;78.17;97922.44;6057885;23;20203;-84
2020/12/10 05:13:22;;;;;;;17.40;10.77;;;;;;;2.09;78.45;97929.94;6031091;23;20201;-85
2020/12/10 05:15:49;;;;;;;17.15;11.70;;;;;;;2.11;78.61;97927.19;6011684;23;20208;-85
2020/12/10 05:18:16;;;;;;;14.35;10.48;;;;;;;2.13;78.76;97920.88;6016259;23;20216;-86
2020/12/10 05:20:48;;;;;;;20.30;11.80;;;;;;;2.13;78.58;97920.88;6028582;23;20207;-82
2020/12/10 05:23:17;;;;;;;13.20;8.27;;;;;;;2.19;78.74;97925.00;6022880;23;20220;-86
2020/12/10 05:25:51;;;;;;;15.55;10.40;;;;;;;2.14;78.55;97919.94;5994854;23;20161;-86
2020/12/10 05:28:19;;;;;;;14.10;9.60;;;;;;;2.17;78.72;97911.81;6014223;23;20607;-85
2020/12/10 05:31:01;;;;;;;18.10;10.80;;;;;;;2.18;78.66;97918.84;6014796;23;20216;-86
2020/12/10 05:33:29;;;;;;;16.83;10.18;;;;;;;2.16;78.65;97914.53;6015268;23;20212;-87
2020/12/10 05:36:09;;;;;;;15.98;10.40;;;;;;;2.11;79.07;97917.44;6037892;23;20662;-85
2020/12/10 05:38:52;;;;;;;15.70;10.15;;;;;;;2.09;78.86;97914.03;6036809;23;20212;-87
2020/12/10 05:41:20;;;;;;;12.48;8.63;;;;;;;2.15;79.07;97919.00;6037505;23;20221;-86
2020/12/10 05:43:46;;;;;;;14.23;10.10;;;;;;;2.15;78.79;97919.00;5994306;23;20180;-84
2020/12/10 05:46:21;;;;;;;15.30;10.85;;;;;;;2.14;78.96;97919.94;6032008;23;20268;-84
2020/12/10 05:48:49;;;;;;;17.05;11.50;;;;;;;2.16;79.10;97918.06;6045490;23;20234;-85
2020/12/10 05:51:20;;;;;;;20.73;13.02;;;;;;;2.41;77.80;97918.50;6017839;23;20213;-88
2020/12/10 05:53:48;;;;;;;13.52;9.85;;;;;;;2.34;77.98;97914.47;6016593;23;20649;-85
2020/12/10 05:56:16;;;;;;;14.45;10.43;;;;;;;2.35;77.84;97924.13;5994159;23;20248;-86
2020/12/10 05:58:48;;;;;;;16.13;11.15;;;;;;;2.37;77.82;97919.59;6018872;23;20173;-86
2020/12/10 06:01:32;;;;;;;17.08;11.85;;;;;;;2.34;78.05;97930.38;6033375;23;20255;-85
2020/12/10 06:04:00;;;;;;;15.15;10.50;;;;;;;2.31;77.97;97925.22;6037130;23;20208;-85
2020/12/10 06:06:30;;;;;;;22.15;11.60;;;;;;;2.26;78.36;97927.25;6056940;23;20204;-86
2020/12/10 06:09:02;;;;;;;24.80;14.93;;;;;;;2.26;78.29;97921.94;6040440;23;20252;-86
2020/12/10 06:11:29;;;;;;;25.75;15.50;;;;;;;2.20;78.58;97927.56;5990854;23;20747;-85
2020/12/10 06:14:01;;;;;;;21.10;12.07;;;;;;;2.43;77.95;97923.72;6041336;23;20173;-85
2020/12/10 06:16:28;;;;;;;17.92;11.27;;;;;;;2.31;78.21;97935.84;6014823;23;20205;-86
2020/12/10 06:19:05;;;;;;;16.90;10.88;;;;;;;2.33;78.01;97928.63;6037973;23;20209;-86
2020/12/10 06:21:37;;;;;;;14.70;10.80;;;;;;;2.37;78.18;97932.88;6045644;23;20208;-83
2020/12/10 06:24:25;;;;;;;18.08;10.65;;;;;;;2.36;77.53;97933.81;6005540;23;20537;-85
2020/12/10 06:26:55;;;;;;;19.30;11.48;;;;;;;2.42;77.50;97922.88;6040679;23;20685;-85
2020/12/10 06:29:27;;;;;;;19.98;11.40;;;;;;;2.37;77.54;97929.38;6017096;23;20189;-85
2020/12/10 06:32:10;;;;;;;23.20;11.55;;;;;;;2.38;77.87;97934.56;6045406;23;20197;-84
2020/12/10 06:34:37;;;;;;;17.48;11.00;;;;;;;2.34;77.54;97941.00;6041633;23;20726;-85
2020/12/10 06:37:21;;;;;;;23.67;11.75;;;;;;;2.26;77.76;97937.84;6018778;23;20215;-85
2020/12/10 06:39:53;;;;;;;17.77;12.05;;;;;;;2.35;77.99;97936.53;6047873;23;20208;-85
2020/12/10 06:42:19;;;;;;;18.83;11.95;;;;;;;2.33;77.87;97935.75;6023574;23;20222;-84
2020/12/10 06:44:46;;;;;;;21.90;13.65;;;;;;;2.43;78.02;97940.50;6049017;23;20292;-85
2020/12/10 06:47:13;;;;;;;19.48;12.70;;;;;;;2.39;77.54;97941.59;6024278;23;20229;-84
2020/12/10 06:49:39;;;;;;;23.45;14.35;;;;;;;2.35;77.73;97931.22;6026477;23;20579;-84
2020/12/10 06:52:18;;;;;;;21.70;13.60;;;;;;;2.38;77.81;97939.03;6024754;23;20216;-84
2020/12/10 06:55:10;;;;;;;29.95;15.30;;;;;;;2.42;77.63;97943.22;6023338;23;20292;-85
2020/12/10 06:58:00;;;;;;;17.48;11.75;;;;;;;2.41;77.42;97947.69;6020226;23;20244;-86
2020/12/10 07:00:35;;;;;;;19.77;12.55;;;;;;;2.44;77.60;97947.50;6053650;23;20212;-84
2020/12/10 07:03:34;;;;;;;19.85;12.68;;;;;;;2.52;77.26;97950.63;6044102;23;20204;-85
2020/12/10 07:06:19;;;;;;;19.05;11.40;;;;;;;2.49;77.19;97950.78;6054585;23;20223;-84
2020/12/10 07:08:58;;;;;;;18.08;11.68;;;;;;;2.61;76.73;97946.63;6036853;23;20629;-84
2020/12/10 07:11:36;;;;;;;17.83;11.57;;;;;;;2.58;77.20;97950.31;6055372;23;21815;-84
2020/12/10 07:14:21;;;;;;;23.55;12.20;;;;;;;2.57;77.17;97951.25;5996396;23;20164;-85
2020/12/10 07:16:47;;;;;;;20.23;12.50;;;;;;;2.48;77.27;97948.22;6017579;23;20213;-85
2020/12/10 07:19:14;;;;;;;19.88;12.80;;;;;;;2.47;77.35;97946.50;5990526;23;20208;-86
2020/12/10 07:21:40;;;;;;;16.00;11.25;;;;;;;2.54;77.35;97953.19;6042438;23;20694;-85
2020/12/10 07:24:06;;;;;;;18.17;11.73;;;;;;;2.57;77.14;97953.91;5993340;23;20211;-83
2020/12/10 07:26:33;;;;;;;18.30;12.10;;;;;;;2.58;77.43;97950.31;6039501;23;20508;-85
2020/12/10 07:28:59;;;;;;;17.45;11.38;;;;;;;2.60;77.05;97950.22;6018145;23;20342;-87
2020/12/10 07:31:25;;;;;;;21.42;13.07;;;;;;;2.59;77.38;97944.09;6058150;23;20197;-82
2020/12/10 07:33:56;;;;;;;17.77;11.75;;;;;;;2.63;77.01;97952.75;6010014;23;20220;-84
2020/12/10 07:36:23;;;;;;;17.42;11.50;;;;;;;2.62;77.17;97951.88;6031582;23;20212;-84
2020/12/10 07:38:49;;;;;;;20.60;11.20;;;;;;;2.69;76.87;97958.56;6045820;23;20269;-85
2020/12/10 07:41:15;;;;;;;19.15;12.07;;;;;;;2.70;76.77;97962.09;6020761;23;20535;-86
2020/12/10 07:43:47;;;;;;;20.17;12.45;;;;;;;2.71;76.94;97966.44;5999669;23;20702;-85
2020/12/10 07:46:14;;;;;;;19.67;11.90;;;;;;;2.67;76.64;97965.75;6027502;23;20200;-85
2020/12/10 07:48:41;;;;;;;21.05;11.48;;;;;;;2.69;76.91;97963.88;6049156;23;20212;-85
2020/12/10 07:51:08;;;;;;;15.63;9.88;;;;;;;2.68;76.94;97967.47;6019826;23;20205;-85
2020/12/10 07:53:35;;;;;;;18.27;11.23;;;;;;;2.72;76.67;97958.41;5991790;23;20215;-85
2020/12/10 07:56:02;;;;;;;16.73;9.95;;;;;;;2.76;76.45;97961.75;6029047;23;20193;-83
2020/12/10 07:58:57;;;;;;;15.55;9.50;;;;;;;2.80;76.16;97960.63;6030607;23;20274;-85
2020/12/10 08:01:24;;;;;;;13.45;10.05;;;;;;;2.84;75.78;97957.75;6021078;23;20228;-86
2020/12/10 08:04:12;;;;;;;11.68;9.55;;;;;;;2.93;75.12;97946.66;6047520;23;20696;-85
2020/12/10 08:06:40;;;;;;;14.68;9.40;;;;;;;2.95;74.81;97944.75;5998823;23;20209;-85
2020/12/10 08:09:07;;;;;;;16.30;9.73;;;;;;;2.93;73.98;97951.94;5998137;23;20209;-85
2020/12/10 08:11:33;;;;;;;9.68;7.18;;;;;;;2.96;72.59;97950.94;6020174;23;20211;-85
2020/12/10 08:14:08;;;;;;;9.50;8.10;;;;;;;3.07;72.36;97949.41;6002964;23;20656;-84
2020/12/10 08:16:35;;;;;;;12.38;8.05;;;;;;;3.09;71.75;97942.19;6059221;23;20259;-84
2020/12/10 08:19:15;;;;;;;9.52;7.32;;;;;;;3.16;71.69;97948.03;6034232;23;20204;-85
2020/12/10 08:21:43;;;;;;;10.15;7.55;;;;;;;3.14;71.84;97944.63;6011751;23;20235;-84
2020/12/10 08:24:12;;;;;;;11.52;8.45;;;;;;;3.22;71.00;97943.22;6035249;23;20264;-84
2020/12/10 08:26:39;;;;;;;9.48;7.63;;;;;;;3.21;69.90;97946.84;6060087;23;20215;-83
2020/12/10 08:29:05;;;;;;;8.23;7.32;;;;;;;3.30;68.48;97935.72;6037783;23;20245;-84
2020/12/10 08:31:33;;;;;;;10.95;7.03;;;;;;;3.30;68.13;97941.03;6015269;23;20296;-83
2020/12/10 08:33:59;;;;;;;9.88;7.63;;;;;;;3.32;68.53;97940.94;6063754;23;20200;-82
2020/12/10 08:36:34;;;;;;;14.40;10.65;;;;;;;3.42;68.88;97936.81;6016979;23;20200;-82
2020/12/10 08:39:03;;;;;;;8.77;6.30;;;;;;;3.51;67.95;97934.50;6063124;23;20203;-83
2020/12/10 08:41:34;;;;;;;7.32;6.43;;;;;;;3.73;66.44;97935.00;6063944;23;20195;-83
2020/12/10 08:44:03;;;;;;;7.68;6.03;;;;;;;3.72;66.47;97943.91;6041856;23;20180;-83
2020/12/10 08:46:31;;;;;;;9.30;7.05;;;;;;;3.69;66.20;97944.09;6027430;23;20211;-86
2020/12/10 08:49:18;;;;;;;8.05;5.95;;;;;;;3.80;65.03;97936.34;6001646;23;20588;-84
2020/12/10 08:51:47;;;;;;;8.80;6.07;;;;;;;3.73;64.58;97935.00;6008840;23;20212;-81
2020/12/10 08:54:14;;;;;;;8.55;6.00;;;;;;;3.66;65.02;97936.28;6004356;23;20291;-85
2020/12/10 08:56:41;;;;;;;8.27;5.60;;;;;;;3.70;64.91;97945.81;6029937;23;20215;-84
2020/12/10 08:59:07;;;;;;;7.95;5.60;;;;;;;3.80;65.11;97939.00;6006608;23;20173;-85
2020/12/10 09:01:34;;;;;;;9.55;6.43;;;;;;;3.90;64.89;97942.00;6051122;23;20215;-85
2020/12/10 09:04:01;;;;;;;9.63;5.72;;;;;;;3.69;65.04;97944.09;6048553;23;20200;-87
2020/12/10 09:06:32;;;;;;;9.02;7.00;;;;;;;3.70;64.75;97948.47;6038503;23;20189;-82
2020/12/10 09:08:59;;;;;;;7.68;6.55;;;;;;;3.70;65.79;97950.25;6040869;23;20253;-82
2020/12/10 09:11:25;;;;;;;8.63;6.43;;;;;;;3.66;65.39;97954.91;6053843;23;20253;-87
2020/12/10 09:13:51;;;;;;;9.65;6.55;;;;;;;3.61;65.49;97951.63;6026115;23;20157;-86
2020/12/10 09:16:17;;;;;;;9.20;6.30;;;;;;;3.78;65.52;97959.53;6031844;23;20200;-84
2020/12/10 09:18:44;;;;;;;7.68;5.60;;;;;;;3.86;64.63;97957.28;6032275;23;20264;-85
2020/12/10 09:21:10;;;;;;;7.20;5.72;;;;;;;3.90;64.04;97957.94;6007193;23;20552;-86
2020/12/10 09:23:45;;;;;;;7.03;5.20;;;;;;;3.96;64.20;97961.13;6041069;23;20204;-86
2020/12/10 09:26:12;;;;;;;7.10;5.03;;;;;;;3.86;64.24;97961.75;5991510;23;20165;-85
2020/12/10 09:28:38;;;;;;;8.90;5.57;;;;;;;3.82;64.76;97970.84;5994622;23;20462;-86
2020/12/10 09:31:05;;;;;;;6.85;5.97;;;;;;;3.84;64.89;97969.81;5993067;23;20284;-86
2020/12/10 09:33:31;;;;;;;8.10;6.40;;;;;;;3.84;65.29;97963.66;6009060;23;20640;-87
2020/12/10 09:35:59;;;;;;;7.75;5.78;;;;;;;4.00;64.94;97969.78;6073194;23;20184;-86
2020/12/10 09:38:25;;;;;;;9.18;6.80;;;;;;;3.82;65.14;97968.19;6074625;23;23567;-87
2020/12/10 09:40:52;;;;;;;8.57;6.10;;;;;;;3.69;65.32;97975.13;6073374;23;20200;-86
2020/12/10 09:43:19;;;;;;;7.05;6.15;;;;;;;3.62;65.07;97979.09;6053978;23;20209;-86
2020/12/10 09:45:51;;;;;;;7.35;5.82;;;;;;;3.63;65.08;97967.50;6028646;23;20213;-85
2020/12/10 09:48:17;;;;;;;7.00;5.18;;;;;;;3.62;65.22;97974.63;6045971;23;20212;-85
2020/12/10 09:50:43;;;;;;;10.05;6.40;;;;;;;3.49;66.24;97973.59;6050193;23;20196;-84
2020/12/10 09:53:17;;;;;;;9.93;6.70;;;;;;;3.53;65.96;97972.47;6082805;23;20168;-85
2020/12/10 09:58:22;;;;;;;7.88;6.38;;;;;;;3.65;65.53;97977.09;6067891;23;20219;-84
2020/12/10 10:00:49;;;;;;;9.88;8.10;;;;;;;4.00;64.71;97969.78;6017771;23;20264;-86
2020/12/10 10:03:20;;;;;;;9.35;7.05;;;;;;;4.08;64.68;97975.50;6042153;23;20204;-88
2020/12/10 10:05:53;;;;;;;8.82;6.60;;;;;;;4.30;63.54;97974.16;6067499;23;20200;-87
2020/12/10 10:08:22;;;;;;;8.27;6.20;;;;;;;4.29;63.15;97966.28;6018646;23;20171;-86
2020/12/10 10:10:50;;;;;;;8.00;6.40;;;;;;;4.26;62.91;97967.31;6044136;23;20212;-86
2020/12/10 10:13:16;;;;;;;9.60;6.07;;;;;;;4.25;63.24;97970.06;6042099;23;20273;-86
2020/12/10 10:15:43;;;;;;;8.07;6.95;;;;;;;4.02;63.94;97973.19;6043434;23;20287;-86
2020/12/10 10:18:09;;;;;;;10.00;6.63;;;;;;;3.94;64.30;97971.00;6043108;23;20205;-87
2020/12/10 10:20:37;;;;;;;12.95;6.35;;;;;;;3.81;64.86;97967.34;6044895;23;20211;-87
2020/12/10 10:23:04;;;;;;;7.63;6.15;;;;;;;3.73;64.79;97968.72;6063745;23;20149;-85
2020/12/10 10:25:30;;;;;;;7.07;5.78;;;;;;;3.82;63.94;97966.38;6060600;23;20208;-86
2020/12/10 10:28:01;;;;;;;10.75;6.18;;;;;;;3.83;64.45;97964.56;6034858;23;20219;-87
2020/12/10 10:30:27;;;;;;;10.85;7.82;;;;;;;3.87;64.73;97959.00;6069620;23;20216;-88
2020/12/10 10:32:57;;;;;;;10.77;7.35;;;;;;;3.80;64.88;97956.78;6041334;23;20224;-87
2020/12/10 10:35:25;;;;;;;8.77;6.60;;;;;;;3.82;64.37;97952.22;6038716;23;20369;-87
2020/12/10 10:37:52;;;;;;;9.05;6.72;;;;;;;3.66;64.90;97946.91;6055294;23;20188;-86
2020/12/10 10:40:19;;;;;;;9.70;7.05;;;;;;;3.57;65.48;97947.47;6048110;23;20232;-85
2020/12/10 10:42:46;;;;;;;9.23;6.65;;;;;;;3.63;65.45;97949.78;6046106;23;20272;-85
2020/12/10 10:45:12;;;;;;;12.02;7.53;;;;;;;3.78;65.06;97948.88;6040977;23;20200;-86
2020/12/10 10:47:40;;;;;;;10.00;7.10;;;;;;;3.64;65.25;97946.16;6018913;23;20205;-85
2020/12/10 10:50:07;;;;;;;8.63;6.38;;;;;;;3.66;64.89;97946.09;6042829;23;20673;-85
2020/12/10 10:52:33;;;;;;;8.35;6.72;;;;;;;3.93;64.50;97949.81;6042644;23;20196;-87
2020/12/10 10:54:59;;;;;;;10.27;6.50;;;;;;;3.79;64.48;97939.97;6063237;23;20243;-86
2020/12/10 10:57:26;;;;;;;13.40;9.48;;;;;;;3.87;64.61;97947.50;6064903;23;20209;-86
2020/12/10 10:59:52;;;;;;;11.65;8.00;;;;;;;3.89;64.83;97951.78;6042994;23;20260;-86
2020/12/10 11:02:18;;;;;;;15.48;9.35;;;;;;;3.95;65.04;97940.81;6021317;23;20224;-87
2020/12/10 11:04:45;;;;;;;12.23;9.20;;;;;;;4.00;64.78;97944.06;6049746;23;20177;-87
2020/12/10 11:07:11;;;;;;;12.60;8.70;;;;;;;3.90;64.99;97948.19;6020589;23;20204;-87
2020/12/10 11:09:37;;;;;;;16.65;9.50;;;;;;;4.03;64.54;97938.53;6041788;23;20240;-87
2020/12/10 11:12:03;;;;;;;13.75;7.28;;;;;;;4.10;64.18;97942.56;6044740;23;20215;-87
2020/12/10 11:14:30;;;;;;;11.50;7.97;;;;;;;4.25;63.62;97938.16;6039585;23;20252;-86
2020/12/10 11:16:56;;;;;;;11.18;8.05;;;;;;;4.32;63.64;97937.69;6065559;23;20193;-86
2020/12/10 11:19:23;;;;;;;12.52;9.07;;;;;;;4.49;63.05;97934.88;6063339;23;20209;-84
2020/12/10 11:21:50;;;;;;;11.82;8.82;;;;;;;4.61;62.24;97926.13;6062350;23;20196;-84
2020/12/10 11:24:16;;;;;;;15.45;9.50;;;;;;;4.51;62.25;97927.66;6050095;23;20240;-85
2020/12/10 11:26:42;;;;;;;13.55;8.38;;;;;;;4.57;62.27;97924.59;6041956;23;20219;-86
2020/12/10 11:29:08;;;;;;;11.90;8.50;;;;;;;4.56;62.24;97922.06;6078844;23;20559;-83
2020/12/10 11:31:35;;;;;;;9.82;7.95;;;;;;;4.53;62.38;97912.44;6058437;23;20228;-86
2020/12/10 11:34:02;;;;;;;13.07;8.77;;;;;;;4.68;62.01;97914.16;6026643;23;20264;-86
2020/12/10 11:36:28;;;;;;;18.55;11.13;;;;;;;4.68;62.46;97913.31;6059174;23;20269;-85
2020/12/10 11:38:55;;;;;;;9.63;7.80;;;;;;;4.59;61.99;97912.06;6086009;23;20196;-83